Time;durP1;ratioP1;P1;durP2;ratioP2;P2;SDS_P1;SDS_P2;PMS_P1;PMS_P2;Temp;Humidity;BMP_temperature;BMP_pressure;BME280_temperature;BME280_humidity;BME280_pressure;Samples;Min_cycle;Max_cycle;Signal;HPM_P1;HPM_P2
2023/02/26 00:02:16;;;;;;;5.10;2.60;;;;;;;-0.92;94.63;98214.86;449971;1255;143518;-65
2023/02/26 00:12:23;;;;;;;4.00;2.60;;;;;;;-0.98;93.96;98222.98;449610;1253;143961;-65
2023/02/26 00:22:29;;;;;;;4.10;3.10;;;;;;;-1.01;94.32;98237.17;449181;1253;142338;-64
2023/02/26 00:32:38;;;;;;;3.70;2.60;;;;;;;-1.03;94.07;98247.23;449907;1253;143213;-64
2023/02/26 00:42:45;;;;;;;5.70;3.40;;;;;;;-1.08;94.01;98246.02;441755;1253;141773;-64
2023/02/26 00:53:02;;;;;;;5.70;4.20;;;;;;;-1.16;94.08;98256.27;438548;1253;142676;-64
2023/02/26 01:03:10;;;;;;;3.50;2.40;;;;;;;-1.28;93.93;98270.44;432725;1253;142108;-64
2023/02/26 01:13:16;;;;;;;7.60;3.40;;;;;;;-1.38;93.91;98287.48;435276;1256;142752;-64
2023/02/26 01:23:25;;;;;;;6.00;3.00;;;;;;;-1.47;94.26;98296.21;438722;1253;142252;-64
2023/02/26 01:33:38;;;;;;;6.30;3.00;;;;;;;-1.51;94.49;98305.98;436897;1254;142390;-64
2023/02/26 01:43:51;;;;;;;4.90;3.50;;;;;;;-1.51;94.46;98314.73;439772;1253;208138;-64
2023/02/26 01:53:57;;;;;;;6.70;3.50;;;;;;;-1.52;94.60;98333.65;447707;1253;142054;-64
2023/02/26 02:04:03;;;;;;;7.10;3.20;;;;;;;-1.51;94.49;98337.52;434346;1253;142642;-64
2023/02/26 02:14:18;;;;;;;4.80;2.70;;;;;;;-1.49;94.82;98357.55;439885;1253;142573;-64
2023/02/26 02:24:34;;;;;;;6.70;3.10;;;;;;;-1.49;94.57;98379.87;434989;1257;142075;-63
2023/02/26 02:34:46;;;;;;;2.70;2.30;;;;;;;-1.54;93.99;98388.13;432816;1253;143821;-64
2023/02/26 02:44:56;;;;;;;4.80;2.60;;;;;;;-1.62;93.57;98401.94;435234;1253;141821;-64
2023/02/26 02:55:06;;;;;;;4.60;2.60;;;;;;;-1.66;93.26;98425.77;434514;1254;142323;-64
2023/02/26 03:05:12;;;;;;;3.60;2.40;;;;;;;-1.70;93.86;98443.86;435641;1253;144311;-65
2023/02/26 03:15:18;;;;;;;;;;;;;;;-1.74;93.81;98453.28;432803;1254;142110;-65
2023/02/26 03:25:27;;;;;;;4.60;2.00;;;;;;;-1.78;93.87;98470.05;443312;1253;128705;-63
2023/02/26 03:35:43;;;;;;;2.70;1.70;;;;;;;-1.83;93.35;98482.91;434875;1253;146245;-64
2023/02/26 03:45:53;;;;;;;2.30;2.10;;;;;;;-1.83;93.51;98501.62;436186;1254;145414;-65
2023/02/26 03:56:03;;;;;;;2.20;1.80;;;;;;;-1.81;93.76;98520.25;436694;1254;141665;-64
2023/02/26 04:06:10;;;;;;;3.20;2.10;;;;;;;-1.78;93.70;98534.76;443895;1254;141168;-64
2023/02/26 04:16:17;;;;;;;2.90;1.80;;;;;;;-1.78;93.77;98552.92;435474;1255;142336;-65
2023/02/26 04:26:23;;;;;;;3.50;1.80;;;;;;;-1.76;93.76;98569.85;444859;1253;142529;-63
2023/02/26 04:36:29;;;;;;;5.30;1.60;;;;;;;-1.78;93.44;98574.89;434214;1254;142325;-65
2023/02/26 04:46:35;;;;;;;2.90;1.80;;;;;;;-1.83;93.56;98576.08;437088;1256;142149;-64
2023/02/26 04:56:41;;;;;;;3.10;1.30;;;;;;;-1.92;93.55;98591.08;434475;1257;141287;-64
2023/02/26 05:06:46;;;;;;;2.80;1.60;;;;;;;-1.99;93.57;98603.46;433964;1256;141480;-64
2023/02/26 05:16:52;;;;;;;1.70;1.50;;;;;;;-2.00;93.36;98610.86;439183;1255;142428;-64
2023/02/26 05:27:02;;;;;;;1.80;1.60;;;;;;;-1.98;93.32;98626.24;433685;1256;141715;-65
2023/02/26 05:37:08;;;;;;;2.40;1.20;;;;;;;-1.98;92.48;98635.48;438210;1254;140893;-64
2023/02/26 05:47:13;;;;;;;2.40;1.80;;;;;;;-1.96;92.03;98647.63;435589;1256;142164;-64
2023/02/26 05:57:19;;;;;;;1.80;1.40;;;;;;;-1.99;91.53;98676.36;433205;1256;144515;-64
2023/02/26 06:07:25;;;;;;;3.60;2.20;;;;;;;-2.02;91.57;98701.33;442289;1256;141729;-64
2023/02/26 06:17:30;;;;;;;3.90;2.10;;;;;;;-2.03;91.54;98720.04;436199;1253;142386;-64
2023/02/26 06:27:36;;;;;;;2.70;2.30;;;;;;;-2.01;91.56;98739.70;443124;1253;144784;-65
2023/02/26 06:37:42;;;;;;;2.80;1.70;;;;;;;-1.97;91.70;98766.52;437790;1256;213306;-64
2023/02/26 06:47:48;;;;;;;2.10;1.90;;;;;;;-1.90;91.87;98787.64;435364;1256;142706;-64
2023/02/26 06:57:54;;;;;;;3.20;1.90;;;;;;;-1.88;91.36;98799.23;432741;1256;142049;-63
2023/02/26 07:07:58;;;;;;;;;;;;;;;-1.86;90.61;98821.14;434825;1255;141623;-64
2023/02/26 07:18:04;;;;;;;3.50;1.90;;;;;;;-1.78;89.83;98839.16;435113;1256;127596;-64
2023/02/26 07:28:10;;;;;;;5.40;2.20;;;;;;;-1.70;89.79;98850.60;433353;1256;142619;-64
2023/02/26 07:38:16;;;;;;;3.10;1.90;;;;;;;-1.62;89.49;98877.34;435840;1256;142382;-64
2023/02/26 07:48:24;;;;;;;3.70;2.10;;;;;;;-1.48;88.62;98897.77;433052;1256;140858;-64
2023/02/26 07:58:30;;;;;;;3.60;2.40;;;;;;;-1.37;88.01;98920.51;439896;1254;144644;-64
2023/02/26 08:08:36;;;;;;;3.10;2.10;;;;;;;-1.27;87.75;98944.79;446623;1252;142458;-64
2023/02/26 08:18:41;;;;;;;4.30;2.80;;;;;;;-1.20;87.28;98956.99;434130;1254;142276;-65
2023/02/26 08:28:47;;;;;;;2.70;1.80;;;;;;;-1.14;86.45;98963.51;437214;1253;141001;-64
2023/02/26 08:38:53;;;;;;;3.00;2.00;;;;;;;-1.06;85.71;98971.55;442564;1254;143411;-63
2023/02/26 08:48:59;;;;;;;3.00;1.80;;;;;;;-0.89;86.11;98979.38;436956;1253;146500;-64
2023/02/26 08:59:04;;;;;;;3.90;2.30;;;;;;;-0.77;86.64;98994.02;438537;1254;142684;-64
2023/02/26 09:09:10;;;;;;;3.80;1.90;;;;;;;-0.66;86.66;99009.69;434655;1257;142061;-64
2023/02/26 09:19:16;;;;;;;4.20;2.90;;;;;;;-0.62;86.73;99030.36;436548;1254;142651;-65
2023/02/26 09:29:22;;;;;;;4.40;2.50;;;;;;;-0.57;86.52;99043.31;441229;1253;141910;-64
2023/02/26 09:39:27;;;;;;;4.80;2.10;;;;;;;-0.49;85.86;99061.48;439278;1252;141952;-64
2023/02/26 09:49:50;;;;;;;2.20;1.90;;;;;;;-0.36;85.05;99082.46;432720;1257;141756;-64
2023/02/26 09:59:56;;;;;;;3.40;2.10;;;;;;;-0.17;84.53;99091.23;437404;1253;142742;-64
2023/02/26 10:10:19;;;;;;;3.60;1.90;;;;;;;0.09;83.24;99104.46;437414;1252;143221;-63
2023/02/26 10:20:30;;;;;;;3.70;2.50;;;;;;;0.12;82.55;99127.60;439263;1253;142082;-64
2023/02/26 10:30:42;;;;;;;3.20;1.90;;;;;;;0.03;82.71;99143.00;437746;1252;142797;-64
2023/02/26 10:40:53;;;;;;;2.10;1.70;;;;;;;-0.04;83.28;99157.30;440124;1253;198244;-64
2023/02/26 10:51:02;;;;;;;4.20;2.20;;;;;;;0.11;83.54;99164.98;437454;1253;143448;-64
2023/02/26 11:01:17;;;;;;;3.50;2.30;;;;;;;0.28;83.59;99176.23;432839;1255;145015;-64
2023/02/26 11:11:42;;;;;;;4.50;2.50;;;;;;;0.34;83.58;99191.20;437757;1252;147383;-65
2023/02/26 11:21:50;;;;;;;4.80;2.70;;;;;;;0.84;82.88;99209.05;435907;1253;142217;-64
2023/02/26 11:32:00;;;;;;;2.50;1.90;;;;;;;0.83;80.83;99224.23;434633;1256;142655;-64
2023/02/26 11:42:06;;;;;;;5.00;2.20;;;;;;;0.69;79.61;99239.79;436802;1254;142901;-64
2023/02/26 11:52:28;;;;;;;2.10;1.30;;;;;;;0.60;79.61;99257.47;449415;1252;143461;-65
2023/02/26 12:02:39;;;;;;;5.10;2.10;;;;;;;0.70;78.51;99265.80;445498;1253;141319;-65
2023/02/26 12:13:03;;;;;;;4.50;1.70;;;;;;;0.67;77.41;99272.75;437822;1253;151193;-65
2023/02/26 12:23:24;;;;;;;5.50;2.00;;;;;;;0.80;76.24;99286.89;450322;1252;142439;-64
2023/02/26 12:33:47;;;;;;;3.10;1.80;;;;;;;1.09;74.48;99296.55;450368;1252;141641;-64
2023/02/26 12:43:54;;;;;;;2.10;1.30;;;;;;;1.18;74.07;99292.82;449827;1252;144175;-64
2023/02/26 12:54:24;;;;;;;4.70;2.70;;;;;;;1.22;73.57;99298.95;450359;1252;142932;-64
2023/02/26 13:04:56;;;;;;;5.90;2.70;;;;;;;0.98;73.25;99299.11;446572;1252;141967;-65
2023/02/26 13:15:18;;;;;;;3.60;1.80;;;;;;;1.10;73.49;99314.97;447687;1252;143908;-63
2023/02/26 13:25:30;;;;;;;2.70;1.40;;;;;;;1.38;73.27;99334.66;446038;1252;146656;-64
2023/02/26 13:35:40;;;;;;;2.40;1.70;;;;;;;1.35;73.36;99345.80;438078;1256;141919;-63
2023/02/26 13:46:00;;;;;;;3.40;2.20;;;;;;;1.30;73.76;99365.08;432512;1253;145969;-64
2023/02/26 13:56:15;;;;;;;4.00;2.90;;;;;;;1.26;74.42;99374.16;441375;1253;143070;-65
2023/02/26 14:06:41;;;;;;;6.50;3.40;;;;;;;1.13;74.62;99374.55;440730;1254;141447;-64
2023/02/26 14:16:53;;;;;;;4.50;2.50;;;;;;;0.86;74.66;99384.61;434590;1253;210350;-64
2023/02/26 14:27:24;;;;;;;4.30;3.50;;;;;;;1.06;74.80;99385.95;442546;1253;141508;-65
2023/02/26 14:37:32;;;;;;;3.40;2.00;;;;;;;1.13;73.20;99396.45;436323;1253;142668;-65
2023/02/26 14:47:38;;;;;;;3.70;2.30;;;;;;;0.89;71.78;99409.33;440299;1257;141494;-64
2023/02/26 14:57:49;;;;;;;7.30;1.80;;;;;;;0.74;71.50;99422.30;438134;1254;141819;-65
2023/02/26 15:08:11;;;;;;;3.20;2.00;;;;;;;0.75;71.69;99439.00;439644;1254;141687;-63
2023/02/26 15:18:44;;;;;;;3.70;3.00;;;;;;;0.69;72.40;99453.63;442073;1255;142143;-64
2023/02/26 15:28:51;;;;;;;3.20;1.90;;;;;;;0.53;73.73;99463.84;445242;1252;211722;-64
2023/02/26 15:39:00;;;;;;;8.30;2.00;;;;;;;0.40;74.63;99467.61;434846;1252;143300;-63
2023/02/26 15:49:14;;;;;;;5.60;3.10;;;;;;;0.27;75.26;99492.18;436934;1253;162999;-64
2023/02/26 15:59:25;;;;;;;5.90;2.80;;;;;;;0.14;75.09;99501.26;436092;1253;141817;-64
2023/02/26 16:09:34;;;;;;;5.90;3.60;;;;;;;0.03;75.00;99509.25;437017;1256;142036;-65
2023/02/26 16:19:43;;;;;;;6.20;2.20;;;;;;;-0.06;75.12;99521.67;435355;1252;141842;-64
2023/02/26 16:29:52;;;;;;;4.70;2.70;;;;;;;-0.13;75.22;99540.23;440866;1252;142354;-64
2023/02/26 16:40:07;;;;;;;8.30;3.10;;;;;;;-0.17;75.13;99557.34;433590;1253;142659;-64
2023/02/26 16:50:19;;;;;;;6.50;2.20;;;;;;;-0.20;74.71;99578.06;435034;1253;146227;-64
2023/02/26 17:00:29;;;;;;;5.10;2.60;;;;;;;-0.21;74.62;99595.98;434265;1253;141586;-65
2023/02/26 17:10:39;;;;;;;4.70;3.00;;;;;;;-0.23;74.64;99615.96;438447;1254;143636;-63
2023/02/26 17:20:46;;;;;;;5.70;2.00;;;;;;;-0.26;74.49;99637.86;437340;1252;142387;-64
2023/02/26 17:30:52;;;;;;;4.60;2.30;;;;;;;-0.32;74.08;99647.79;435313;1254;142532;-64
2023/02/26 17:40:59;;;;;;;3.50;2.60;;;;;;;-0.36;73.89;99663.34;435201;1253;143073;-65
2023/02/26 17:51:06;;;;;;;5.20;2.40;;;;;;;-0.42;73.36;99676.52;438189;1256;141708;-65
2023/02/26 18:01:10;;;;;;;;;;;;;;;-0.51;73.35;99681.83;434291;1253;142388;-65
2023/02/26 18:11:18;;;;;;;8.30;3.50;;;;;;;-0.56;73.31;99692.91;437941;1253;127742;-63
2023/02/26 18:21:25;;;;;;;8.10;3.20;;;;;;;-0.55;72.81;99698.41;438103;1254;142093;-64
2023/02/26 18:31:33;;;;;;;5.30;3.80;;;;;;;-0.54;72.14;99713.52;438296;1253;141908;-63
2023/02/26 18:41:40;;;;;;;5.90;3.40;;;;;;;-0.56;71.95;99726.45;435047;1253;142012;-63
2023/02/26 18:51:45;;;;;;;4.90;3.70;;;;;;;-0.59;71.54;99728.91;442700;1253;165769;-63
2023/02/26 19:01:51;;;;;;;5.10;3.70;;;;;;;-0.60;72.82;99743.19;450025;1253;142246;-63
2023/02/26 19:11:58;;;;;;;7.50;3.40;;;;;;;-0.60;74.22;99757.11;450283;1253;143386;-64
2023/02/26 19:22:04;;;;;;;7.60;3.90;;;;;;;-0.62;75.10;99763.67;440089;1253;143073;-63
2023/02/26 19:32:10;;;;;;;11.10;5.40;;;;;;;-0.66;76.25;99770.80;450194;1253;143354;-64
2023/02/26 19:42:16;;;;;;;6.00;4.30;;;;;;;-0.71;76.87;99781.19;440832;1253;141407;-64
2023/02/26 19:52:22;;;;;;;6.60;3.40;;;;;;;-0.79;77.11;99799.35;440999;1253;152794;-64
2023/02/26 20:02:28;;;;;;;7.40;3.70;;;;;;;-0.85;76.80;99819.02;450163;1253;143562;-64
2023/02/26 20:12:35;;;;;;;6.50;3.90;;;;;;;-0.90;77.04;99835.60;447054;1253;141841;-64
2023/02/26 20:22:41;;;;;;;4.80;3.10;;;;;;;-0.92;77.30;99842.14;439867;1253;143449;-64
2023/02/26 20:32:46;;;;;;;7.50;3.50;;;;;;;-0.94;77.50;99858.48;450252;1252;141463;-63
2023/02/26 20:42:53;;;;;;;3.90;2.10;;;;;;;-0.96;77.21;99871.59;449541;1250;142874;-63
2023/02/26 20:52:58;;;;;;;6.80;3.00;;;;;;;-0.98;77.30;99871.27;443860;1253;141743;-64
2023/02/26 21:03:05;;;;;;;5.90;3.20;;;;;;;-0.98;77.20;99883.13;449961;1250;141114;-63
2023/02/26 21:13:12;;;;;;;4.60;2.10;;;;;;;-0.99;77.56;99893.77;449458;1252;142048;-62
2023/02/26 21:23:18;;;;;;;4.40;2.90;;;;;;;-0.99;77.71;99895.85;450065;1253;143787;-62
2023/02/26 21:33:23;;;;;;;6.20;3.10;;;;;;;-1.00;77.66;99905.31;450256;1253;142170;-64
2023/02/26 21:43:29;;;;;;;6.60;3.10;;;;;;;-1.03;77.18;99914.29;449473;1253;143522;-62
2023/02/26 21:53:35;;;;;;;4.60;2.40;;;;;;;-1.05;77.06;99916.20;441916;1253;142013;-63
2023/02/26 22:03:41;;;;;;;5.90;3.10;;;;;;;-1.08;76.66;99926.73;450202;1252;142627;-62
2023/02/26 22:13:48;;;;;;;4.00;2.60;;;;;;;-1.13;76.62;99942.40;443822;1253;211026;-62
2023/02/26 22:23:54;;;;;;;6.10;3.60;;;;;;;-1.18;76.69;99945.36;447234;1253;141943;-62
2023/02/26 22:34:00;;;;;;;5.60;3.00;;;;;;;-1.22;76.97;99952.63;446227;1254;188544;-63
2023/02/26 22:44:06;;;;;;;4.60;2.60;;;;;;;-1.24;76.99;99959.18;450212;1253;142598;-65
2023/02/26 22:54:11;;;;;;;;;;;;;;;-1.26;77.45;99962.62;450248;1253;143503;-64
2023/02/26 23:04:17;;;;;;;5.40;2.60;;;;;;;-1.30;78.10;99970.04;449784;1253;128652;-64
2023/02/26 23:14:23;;;;;;;6.10;3.20;;;;;;;-1.37;78.27;99979.73;445956;1252;142209;-64
2023/02/26 23:24:29;;;;;;;7.70;3.70;;;;;;;-1.49;78.57;99993.05;449423;1255;142958;-64
2023/02/26 23:34:35;;;;;;;6.70;3.10;;;;;;;-1.51;79.19;100004.58;441804;1256;142099;-65
2023/02/26 23:44:40;;;;;;;8.40;3.20;;;;;;;-1.47;79.05;100014.51;433405;1256;145561;-65
2023/02/26 23:54:46;;;;;;;4.90;2.20;;;;;;;-1.48;79.45;100021.21;439504;1256;143468;-63
